Harve-St-Pierre, Canada
Current Conditions -  °F | °C
As of 3:00 PM on Tuesday 21 Oct 2014 (Local Time) from CYGV Reporting Station
Overcast Overcast  
Wind Chill: 44°   Ceiling: 4800
Heat Index: 46°   Visibility: 9mi
Dew Point: 34°   Wind: 5mph
Humidity: 62%   Direction: 360°N
Pressure: 30.06"   Gusts: NA
Location:  50.24°N, 63.6°W
Report Text: CYGV 211800Z AUTO 36004KT 320V040 9SM SCT038 BKN048 OVC060 08/01 A3006 RMK SLP179
Loading
Personal Weather Stations






























Interactive Weather Map
Tropical Storm Tracking
New forecast layout! Learn more

10-Day Weather Forecast

Advertisements
Track Severe Weather on mobile